sensor_id;sensor_type;location;lat;lon;timestamp;P1;durP1;ratioP1;P2;durP2;ratioP2
19727;SDS011;10015;52.530;13.390;2023-06-14T00:00:58;3.70;;;1.83;;
19727;SDS011;10015;52.530;13.390;2023-06-14T00:03:24;4.07;;;2.20;;
19727;SDS011;10015;52.530;13.390;2023-06-14T00:05:51;2.20;;;1.90;;
19727;SDS011;10015;52.530;13.390;2023-06-14T00:08:17;4.17;;;2.00;;
19727;SDS011;10015;52.530;13.390;2023-06-14T00:10:44;3.40;;;2.37;;
19727;SDS011;10015;52.530;13.390;2023-06-14T00:13:10;2.70;;;2.10;;
19727;SDS011;10015;52.530;13.390;2023-06-14T00:15:36;2.47;;;2.10;;
19727;SDS011;10015;52.530;13.390;2023-06-14T00:18:03;7.83;;;2.20;;
19727;SDS011;10015;52.530;13.390;2023-06-14T00:20:30;5.37;;;2.20;;
19727;SDS011;10015;52.530;13.390;2023-06-14T00:22:58;4.00;;;2.03;;
19727;SDS011;10015;52.530;13.390;2023-06-14T00:25:25;3.07;;;2.00;;
19727;SDS011;10015;52.530;13.390;2023-06-14T00:27:51;4.10;;;2.20;;
19727;SDS011;10015;52.530;13.390;2023-06-14T00:30:17;4.93;;;2.10;;
19727;SDS011;10015;52.530;13.390;2023-06-14T00:32:44;3.17;;;1.80;;
19727;SDS011;10015;52.530;13.390;2023-06-14T00:35:10;4.23;;;2.23;;
19727;SDS011;10015;52.530;13.390;2023-06-14T00:37:37;2.33;;;2.03;;
19727;SDS011;10015;52.530;13.390;2023-06-14T00:40:03;3.27;;;2.10;;
19727;SDS011;10015;52.530;13.390;2023-06-14T00:42:30;2.77;;;2.10;;
19727;SDS011;10015;52.530;13.390;2023-06-14T00:44:56;2.80;;;2.10;;
19727;SDS011;10015;52.530;13.390;2023-06-14T00:47:23;2.80;;;2.10;;
19727;SDS011;10015;52.530;13.390;2023-06-14T00:49:50;2.80;;;2.20;;
19727;SDS011;10015;52.530;13.390;2023-06-14T00:52:17;3.63;;;2.10;;
19727;SDS011;10015;52.530;13.390;2023-06-14T00:54:43;3.27;;;2.63;;
19727;SDS011;10015;52.530;13.390;2023-06-14T00:57:10;4.23;;;2.43;;
19727;SDS011;10015;52.530;13.390;2023-06-14T00:59:38;4.83;;;2.43;;
19727;SDS011;10015;52.530;13.390;2023-06-14T01:02:13;4.00;;;2.40;;
19727;SDS011;10015;52.530;13.390;2023-06-14T01:04:40;4.43;;;2.57;;
19727;SDS011;10015;52.530;13.390;2023-06-14T01:07:23;5.50;;;2.73;;
19727;SDS011;10015;52.530;13.390;2023-06-14T01:12:56;3.63;;;2.40;;
19727;SDS011;10015;52.530;13.390;2023-06-14T01:15:35;4.10;;;2.57;;
19727;SDS011;10015;52.530;13.390;2023-06-14T01:18:04;4.03;;;3.07;;
19727;SDS011;10015;52.530;13.390;2023-06-14T01:20:31;5.73;;;2.60;;
19727;SDS011;10015;52.530;13.390;2023-06-14T01:22:58;5.87;;;2.60;;
19727;SDS011;10015;52.530;13.390;2023-06-14T01:25:25;4.00;;;2.83;;
19727;SDS011;10015;52.530;13.390;2023-06-14T01:28:02;6.73;;;2.80;;
19727;SDS011;10015;52.530;13.390;2023-06-14T01:30:36;4.20;;;2.80;;
19727;SDS011;10015;52.530;13.390;2023-06-14T01:33:03;6.23;;;3.13;;
19727;SDS011;10015;52.530;13.390;2023-06-14T01:35:30;4.93;;;3.33;;
19727;SDS011;10015;52.530;13.390;2023-06-14T01:37:57;6.10;;;2.93;;
19727;SDS011;10015;52.530;13.390;2023-06-14T01:40:24;4.67;;;3.03;;
19727;SDS011;10015;52.530;13.390;2023-06-14T01:42:53;5.33;;;3.23;;
19727;SDS011;10015;52.530;13.390;2023-06-14T01:45:19;4.93;;;3.50;;
19727;SDS011;10015;52.530;13.390;2023-06-14T01:47:47;4.10;;;3.00;;
19727;SDS011;10015;52.530;13.390;2023-06-14T01:50:15;3.40;;;2.97;;
19727;SDS011;10015;52.530;13.390;2023-06-14T01:52:41;3.90;;;2.80;;
19727;SDS011;10015;52.530;13.390;2023-06-14T01:55:09;5.80;;;3.73;;
19727;SDS011;10015;52.530;13.390;2023-06-14T01:57:35;3.13;;;2.83;;
19727;SDS011;10015;52.530;13.390;2023-06-14T02:00:01;5.47;;;3.03;;
19727;SDS011;10015;52.530;13.390;2023-06-14T02:02:38;3.87;;;3.43;;
19727;SDS011;10015;52.530;13.390;2023-06-14T02:05:05;3.73;;;2.90;;
19727;SDS011;10015;52.530;13.390;2023-06-14T02:07:31;5.43;;;3.30;;
19727;SDS011;10015;52.530;13.390;2023-06-14T02:09:57;5.40;;;3.10;;
19727;SDS011;10015;52.530;13.390;2023-06-14T02:12:23;4.63;;;3.00;;
19727;SDS011;10015;52.530;13.390;2023-06-14T02:14:49;4.60;;;3.20;;
19727;SDS011;10015;52.530;13.390;2023-06-14T02:17:16;4.53;;;3.20;;
19727;SDS011;10015;52.530;13.390;2023-06-14T02:19:42;5.47;;;3.70;;
19727;SDS011;10015;52.530;13.390;2023-06-14T02:22:08;5.57;;;4.00;;
19727;SDS011;10015;52.530;13.390;2023-06-14T02:24:34;7.57;;;3.33;;
19727;SDS011;10015;52.530;13.390;2023-06-14T02:27:01;5.27;;;3.20;;
19727;SDS011;10015;52.530;13.390;2023-06-14T02:29:27;4.33;;;3.17;;
19727;SDS011;10015;52.530;13.390;2023-06-14T02:31:53;6.37;;;3.43;;
19727;SDS011;10015;52.530;13.390;2023-06-14T02:34:20;6.67;;;3.70;;
19727;SDS011;10015;52.530;13.390;2023-06-14T02:36:47;5.40;;;3.60;;
19727;SDS011;10015;52.530;13.390;2023-06-14T02:39:13;4.53;;;3.37;;
19727;SDS011;10015;52.530;13.390;2023-06-14T02:41:39;7.40;;;4.17;;
19727;SDS011;10015;52.530;13.390;2023-06-14T02:44:05;6.10;;;3.70;;
19727;SDS011;10015;52.530;13.390;2023-06-14T02:46:32;10.33;;;4.03;;
19727;SDS011;10015;52.530;13.390;2023-06-14T02:48:58;5.60;;;3.80;;
19727;SDS011;10015;52.530;13.390;2023-06-14T02:51:24;5.23;;;3.53;;
19727;SDS011;10015;52.530;13.390;2023-06-14T02:53:51;5.13;;;3.90;;
19727;SDS011;10015;52.530;13.390;2023-06-14T02:56:17;5.60;;;4.00;;
19727;SDS011;10015;52.530;13.390;2023-06-14T02:58:45;7.60;;;3.70;;
19727;SDS011;10015;52.530;13.390;2023-06-14T03:01:14;7.57;;;3.80;;
19727;SDS011;10015;52.530;13.390;2023-06-14T03:03:40;6.93;;;4.30;;
19727;SDS011;10015;52.530;13.390;2023-06-14T03:06:06;7.97;;;3.83;;
19727;SDS011;10015;52.530;13.390;2023-06-14T03:08:35;6.83;;;3.90;;
19727;SDS011;10015;52.530;13.390;2023-06-14T03:11:07;4.93;;;3.40;;
19727;SDS011;10015;52.530;13.390;2023-06-14T03:13:35;6.87;;;3.80;;
19727;SDS011;10015;52.530;13.390;2023-06-14T03:16:03;5.30;;;3.73;;
19727;SDS011;10015;52.530;13.390;2023-06-14T03:18:33;7.87;;;3.83;;
19727;SDS011;10015;52.530;13.390;2023-06-14T03:21:01;5.70;;;3.50;;
19727;SDS011;10015;52.530;13.390;2023-06-14T03:23:28;5.63;;;3.93;;
19727;SDS011;10015;52.530;13.390;2023-06-14T03:25:55;7.37;;;4.17;;
19727;SDS011;10015;52.530;13.390;2023-06-14T03:28:21;6.07;;;4.03;;
19727;SDS011;10015;52.530;13.390;2023-06-14T03:30:48;7.33;;;4.03;;
19727;SDS011;10015;52.530;13.390;2023-06-14T03:33:14;6.73;;;4.33;;
19727;SDS011;10015;52.530;13.390;2023-06-14T03:35:41;6.70;;;4.13;;
19727;SDS011;10015;52.530;13.390;2023-06-14T03:38:08;6.60;;;4.10;;
19727;SDS011;10015;52.530;13.390;2023-06-14T03:40:34;6.03;;;3.87;;
19727;SDS011;10015;52.530;13.390;2023-06-14T03:43:02;11.10;;;4.80;;
19727;SDS011;10015;52.530;13.390;2023-06-14T03:45:31;5.30;;;4.10;;
19727;SDS011;10015;52.530;13.390;2023-06-14T03:47:58;9.67;;;4.20;;
19727;SDS011;10015;52.530;13.390;2023-06-14T03:50:26;5.47;;;3.87;;
19727;SDS011;10015;52.530;13.390;2023-06-14T03:52:55;6.67;;;4.50;;
19727;SDS011;10015;52.530;13.390;2023-06-14T03:55:21;6.10;;;4.40;;
19727;SDS011;10015;52.530;13.390;2023-06-14T03:57:51;7.03;;;4.47;;
19727;SDS011;10015;52.530;13.390;2023-06-14T04:00:17;4.47;;;4.07;;
19727;SDS011;10015;52.530;13.390;2023-06-14T04:02:44;7.60;;;4.70;;
19727;SDS011;10015;52.530;13.390;2023-06-14T04:05:10;8.53;;;4.73;;
19727;SDS011;10015;52.530;13.390;2023-06-14T04:07:40;5.70;;;4.10;;
19727;SDS011;10015;52.530;13.390;2023-06-14T04:10:13;6.30;;;4.20;;
19727;SDS011;10015;52.530;13.390;2023-06-14T04:12:40;8.50;;;4.80;;
19727;SDS011;10015;52.530;13.390;2023-06-14T04:15:06;7.27;;;4.37;;
19727;SDS011;10015;52.530;13.390;2023-06-14T04:17:34;7.03;;;4.87;;
19727;SDS011;10015;52.530;13.390;2023-06-14T04:20:02;5.97;;;4.43;;
19727;SDS011;10015;52.530;13.390;2023-06-14T04:22:30;6.60;;;4.40;;
19727;SDS011;10015;52.530;13.390;2023-06-14T04:24:58;9.10;;;4.67;;
19727;SDS011;10015;52.530;13.390;2023-06-14T04:27:28;8.03;;;4.80;;
19727;SDS011;10015;52.530;13.390;2023-06-14T04:29:58;7.83;;;4.60;;
19727;SDS011;10015;52.530;13.390;2023-06-14T04:32:32;8.87;;;4.20;;
19727;SDS011;10015;52.530;13.390;2023-06-14T04:35:06;7.63;;;5.13;;
19727;SDS011;10015;52.530;13.390;2023-06-14T04:37:34;8.10;;;4.87;;
19727;SDS011;10015;52.530;13.390;2023-06-14T04:40:05;8.33;;;4.80;;
19727;SDS011;10015;52.530;13.390;2023-06-14T04:42:33;6.33;;;4.40;;
19727;SDS011;10015;52.530;13.390;2023-06-14T04:45:03;6.40;;;4.63;;
19727;SDS011;10015;52.530;13.390;2023-06-14T04:47:29;7.63;;;4.63;;
19727;SDS011;10015;52.530;13.390;2023-06-14T04:49:57;11.03;;;5.10;;
19727;SDS011;10015;52.530;13.390;2023-06-14T04:52:23;6.50;;;4.37;;
19727;SDS011;10015;52.530;13.390;2023-06-14T04:54:52;6.10;;;4.47;;
19727;SDS011;10015;52.530;13.390;2023-06-14T04:57:20;10.37;;;4.47;;
19727;SDS011;10015;52.530;13.390;2023-06-14T04:59:48;6.63;;;5.17;;
19727;SDS011;10015;52.530;13.390;2023-06-14T05:02:20;6.17;;;4.10;;
19727;SDS011;10015;52.530;13.390;2023-06-14T05:04:52;8.17;;;4.63;;
19727;SDS011;10015;52.530;13.390;2023-06-14T05:07:18;5.57;;;4.37;;
19727;SDS011;10015;52.530;13.390;2023-06-14T05:09:46;5.97;;;4.20;;
19727;SDS011;10015;52.530;13.390;2023-06-14T05:12:12;6.27;;;3.83;;
19727;SDS011;10015;52.530;13.390;2023-06-14T05:14:38;9.77;;;5.50;;
19727;SDS011;10015;52.530;13.390;2023-06-14T05:17:05;13.67;;;8.80;;
19727;SDS011;10015;52.530;13.390;2023-06-14T05:19:31;17.80;;;8.73;;
19727;SDS011;10015;52.530;13.390;2023-06-14T05:21:57;8.37;;;4.80;;
19727;SDS011;10015;52.530;13.390;2023-06-14T05:24:23;7.80;;;5.07;;
19727;SDS011;10015;52.530;13.390;2023-06-14T05:26:49;7.57;;;4.90;;
19727;SDS011;10015;52.530;13.390;2023-06-14T05:29:15;11.43;;;5.13;;
19727;SDS011;10015;52.530;13.390;2023-06-14T05:31:41;9.93;;;4.97;;
19727;SDS011;10015;52.530;13.390;2023-06-14T05:34:07;12.20;;;5.10;;
19727;SDS011;10015;52.530;13.390;2023-06-14T05:36:33;8.10;;;4.80;;
19727;SDS011;10015;52.530;13.390;2023-06-14T05:38:58;7.73;;;5.23;;
19727;SDS011;10015;52.530;13.390;2023-06-14T05:41:28;7.03;;;4.87;;
19727;SDS011;10015;52.530;13.390;2023-06-14T05:43:55;12.40;;;5.10;;
19727;SDS011;10015;52.530;13.390;2023-06-14T05:46:21;9.07;;;5.60;;
19727;SDS011;10015;52.530;13.390;2023-06-14T05:48:50;8.17;;;5.33;;
19727;SDS011;10015;52.530;13.390;2023-06-14T05:51:16;10.13;;;5.50;;
19727;SDS011;10015;52.530;13.390;2023-06-14T05:53:46;13.97;;;6.00;;
19727;SDS011;10015;52.530;13.390;2023-06-14T05:56:13;13.27;;;6.33;;
19727;SDS011;10015;52.530;13.390;2023-06-14T05:58:39;9.93;;;5.70;;
19727;SDS011;10015;52.530;13.390;2023-06-14T06:01:05;9.97;;;5.30;;
19727;SDS011;10015;52.530;13.390;2023-06-14T06:03:31;8.63;;;5.80;;
19727;SDS011;10015;52.530;13.390;2023-06-14T06:05:57;8.67;;;5.17;;
19727;SDS011;10015;52.530;13.390;2023-06-14T06:08:24;10.07;;;4.90;;
19727;SDS011;10015;52.530;13.390;2023-06-14T06:10:49;8.07;;;5.20;;
19727;SDS011;10015;52.530;13.390;2023-06-14T06:13:16;9.17;;;4.77;;
19727;SDS011;10015;52.530;13.390;2023-06-14T06:15:41;7.50;;;4.73;;
19727;SDS011;10015;52.530;13.390;2023-06-14T06:18:07;7.97;;;4.40;;
19727;SDS011;10015;52.530;13.390;2023-06-14T06:20:33;7.97;;;4.70;;
19727;SDS011;10015;52.530;13.390;2023-06-14T06:22:59;8.13;;;4.83;;
19727;SDS011;10015;52.530;13.390;2023-06-14T06:25:26;8.70;;;5.13;;
19727;SDS011;10015;52.530;13.390;2023-06-14T06:27:55;8.97;;;5.00;;
19727;SDS011;10015;52.530;13.390;2023-06-14T06:30:21;9.70;;;5.00;;
19727;SDS011;10015;52.530;13.390;2023-06-14T06:32:47;6.73;;;4.90;;
19727;SDS011;10015;52.530;13.390;2023-06-14T06:35:14;8.40;;;5.23;;
19727;SDS011;10015;52.530;13.390;2023-06-14T06:37:41;10.27;;;4.87;;
19727;SDS011;10015;52.530;13.390;2023-06-14T06:40:07;6.37;;;4.47;;
19727;SDS011;10015;52.530;13.390;2023-06-14T06:42:34;8.93;;;4.93;;
19727;SDS011;10015;52.530;13.390;2023-06-14T06:45:03;10.00;;;4.90;;
19727;SDS011;10015;52.530;13.390;2023-06-14T06:47:31;9.93;;;5.27;;
19727;SDS011;10015;52.530;13.390;2023-06-14T06:49:57;9.67;;;4.80;;
19727;SDS011;10015;52.530;13.390;2023-06-14T06:52:23;11.17;;;4.60;;
19727;SDS011;10015;52.530;13.390;2023-06-14T06:54:49;7.43;;;4.80;;
19727;SDS011;10015;52.530;13.390;2023-06-14T06:57:15;7.70;;;4.70;;
19727;SDS011;10015;52.530;13.390;2023-06-14T06:59:41;13.63;;;5.00;;
19727;SDS011;10015;52.530;13.390;2023-06-14T07:02:07;7.30;;;4.30;;
19727;SDS011;10015;52.530;13.390;2023-06-14T07:04:33;9.17;;;4.77;;
19727;SDS011;10015;52.530;13.390;2023-06-14T07:06:59;6.90;;;4.50;;
19727;SDS011;10015;52.530;13.390;2023-06-14T07:09:25;7.87;;;4.20;;
19727;SDS011;10015;52.530;13.390;2023-06-14T07:11:51;8.20;;;4.33;;
19727;SDS011;10015;52.530;13.390;2023-06-14T07:14:17;9.47;;;5.40;;
19727;SDS011;10015;52.530;13.390;2023-06-14T07:16:43;8.23;;;4.20;;
19727;SDS011;10015;52.530;13.390;2023-06-14T07:19:09;7.47;;;4.80;;
19727;SDS011;10015;52.530;13.390;2023-06-14T07:21:35;7.60;;;4.77;;
19727;SDS011;10015;52.530;13.390;2023-06-14T07:24:07;7.67;;;4.80;;
19727;SDS011;10015;52.530;13.390;2023-06-14T07:26:34;8.10;;;4.37;;
19727;SDS011;10015;52.530;13.390;2023-06-14T07:29:00;7.80;;;4.23;;
19727;SDS011;10015;52.530;13.390;2023-06-14T07:31:26;8.43;;;3.97;;
19727;SDS011;10015;52.530;13.390;2023-06-14T07:33:52;5.03;;;4.10;;
19727;SDS011;10015;52.530;13.390;2023-06-14T07:36:18;7.57;;;4.47;;
19727;SDS011;10015;52.530;13.390;2023-06-14T07:38:45;9.37;;;4.17;;
19727;SDS011;10015;52.530;13.390;2023-06-14T07:41:11;9.13;;;4.30;;
19727;SDS011;10015;52.530;13.390;2023-06-14T07:43:37;9.83;;;4.70;;
19727;SDS011;10015;52.530;13.390;2023-06-14T07:46:03;8.07;;;4.37;;
19727;SDS011;10015;52.530;13.390;2023-06-14T07:48:29;9.73;;;4.90;;
19727;SDS011;10015;52.530;13.390;2023-06-14T07:50:55;9.03;;;4.40;;
19727;SDS011;10015;52.530;13.390;2023-06-14T07:53:21;9.43;;;4.97;;
19727;SDS011;10015;52.530;13.390;2023-06-14T07:55:47;7.47;;;4.03;;
19727;SDS011;10015;52.530;13.390;2023-06-14T07:58:14;7.47;;;4.27;;
19727;SDS011;10015;52.530;13.390;2023-06-14T08:00:40;6.67;;;4.13;;
19727;SDS011;10015;52.530;13.390;2023-06-14T08:03:06;7.50;;;4.13;;
19727;SDS011;10015;52.530;13.390;2023-06-14T08:05:33;8.00;;;3.90;;
19727;SDS011;10015;52.530;13.390;2023-06-14T08:07:59;7.23;;;3.90;;
19727;SDS011;10015;52.530;13.390;2023-06-14T08:10:25;5.63;;;3.67;;
19727;SDS011;10015;52.530;13.390;2023-06-14T08:12:51;5.97;;;3.85;;
19727;SDS011;10015;52.530;13.390;2023-06-14T08:15:17;9.60;;;4.28;;
19727;SDS011;10015;52.530;13.390;2023-06-14T08:17:44;7.50;;;3.92;;
19727;SDS011;10015;52.530;13.390;2023-06-14T08:20:10;6.73;;;4.00;;
19727;SDS011;10015;52.530;13.390;2023-06-14T08:22:37;7.35;;;4.07;;
19727;SDS011;10015;52.530;13.390;2023-06-14T08:25:05;7.43;;;4.10;;
19727;SDS011;10015;52.530;13.390;2023-06-14T08:27:32;7.53;;;3.97;;
19727;SDS011;10015;52.530;13.390;2023-06-14T08:29:58;8.63;;;4.05;;
19727;SDS011;10015;52.530;13.390;2023-06-14T08:32:24;7.03;;;3.70;;
19727;SDS011;10015;52.530;13.390;2023-06-14T08:34:50;10.20;;;3.72;;
19727;SDS011;10015;52.530;13.390;2023-06-14T08:37:16;8.63;;;3.88;;
19727;SDS011;10015;52.530;13.390;2023-06-14T08:39:42;8.97;;;4.00;;
19727;SDS011;10015;52.530;13.390;2023-06-14T08:42:09;5.95;;;3.60;;
19727;SDS011;10015;52.530;13.390;2023-06-14T08:44:36;6.97;;;3.05;;
19727;SDS011;10015;52.530;13.390;2023-06-14T08:47:02;9.75;;;3.40;;
19727;SDS011;10015;52.530;13.390;2023-06-14T08:49:31;8.13;;;3.30;;
19727;SDS011;10015;52.530;13.390;2023-06-14T08:51:59;6.85;;;3.80;;
19727;SDS011;10015;52.530;13.390;2023-06-14T08:54:29;7.22;;;3.60;;
19727;SDS011;10015;52.530;13.390;2023-06-14T08:56:56;8.38;;;3.70;;
19727;SDS011;10015;52.530;13.390;2023-06-14T08:59:25;9.48;;;3.80;;
19727;SDS011;10015;52.530;13.390;2023-06-14T09:01:52;6.68;;;3.53;;
19727;SDS011;10015;52.530;13.390;2023-06-14T09:04:23;5.40;;;3.58;;
19727;SDS011;10015;52.530;13.390;2023-06-14T09:06:55;6.88;;;3.60;;
19727;SDS011;10015;52.530;13.390;2023-06-14T09:09:21;6.18;;;3.30;;
19727;SDS011;10015;52.530;13.390;2023-06-14T09:11:49;4.85;;;2.95;;
19727;SDS011;10015;52.530;13.390;2023-06-14T09:14:17;7.63;;;3.40;;
19727;SDS011;10015;52.530;13.390;2023-06-14T09:16:43;6.22;;;3.05;;
19727;SDS011;10015;52.530;13.390;2023-06-14T09:19:13;5.97;;;3.72;;
19727;SDS011;10015;52.530;13.390;2023-06-14T09:21:47;9.02;;;3.45;;
19727;SDS011;10015;52.530;13.390;2023-06-14T09:24:14;7.95;;;3.30;;
19727;SDS011;10015;52.530;13.390;2023-06-14T09:26:40;11.77;;;4.00;;
19727;SDS011;10015;52.530;13.390;2023-06-14T09:29:06;9.80;;;3.95;;
19727;SDS011;10015;52.530;13.390;2023-06-14T09:31:32;7.85;;;3.53;;
19727;SDS011;10015;52.530;13.390;2023-06-14T09:33:58;6.27;;;3.40;;
19727;SDS011;10015;52.530;13.390;2023-06-14T09:36:28;8.77;;;3.60;;
19727;SDS011;10015;52.530;13.390;2023-06-14T09:38:57;6.53;;;3.25;;
19727;SDS011;10015;52.530;13.390;2023-06-14T09:44:06;7.97;;;3.40;;
19727;SDS011;10015;52.530;13.390;2023-06-14T09:46:33;6.70;;;2.83;;
19727;SDS011;10015;52.530;13.390;2023-06-14T09:49:01;6.35;;;3.75;;
19727;SDS011;10015;52.530;13.390;2023-06-14T09:51:28;5.38;;;3.42;;
19727;SDS011;10015;52.530;13.390;2023-06-14T09:53:58;8.50;;;3.60;;
19727;SDS011;10015;52.530;13.390;2023-06-14T09:56:34;7.53;;;3.65;;
19727;SDS011;10015;52.530;13.390;2023-06-14T09:59:04;6.07;;;3.30;;
19727;SDS011;10015;52.530;13.390;2023-06-14T10:01:32;8.30;;;3.17;;
19727;SDS011;10015;52.530;13.390;2023-06-14T10:04:03;15.20;;;4.00;;
19727;SDS011;10015;52.530;13.390;2023-06-14T10:06:31;6.28;;;3.95;;
19727;SDS011;10015;52.530;13.390;2023-06-14T10:08:58;5.10;;;3.25;;
19727;SDS011;10015;52.530;13.390;2023-06-14T10:11:26;8.07;;;3.85;;
19727;SDS011;10015;52.530;13.390;2023-06-14T10:13:54;5.05;;;3.25;;
19727;SDS011;10015;52.530;13.390;2023-06-14T10:19:00;6.47;;;3.28;;
19727;SDS011;10015;52.530;13.390;2023-06-14T10:21:58;8.38;;;3.50;;
19727;SDS011;10015;52.530;13.390;2023-06-14T10:24:28;6.15;;;3.55;;
19727;SDS011;10015;52.530;13.390;2023-06-14T10:26:58;7.78;;;3.45;;
19727;SDS011;10015;52.530;13.390;2023-06-14T10:29:26;5.68;;;3.50;;
19727;SDS011;10015;52.530;13.390;2023-06-14T10:31:59;8.35;;;3.50;;
19727;SDS011;10015;52.530;13.390;2023-06-14T10:34:29;4.28;;;3.25;;
19727;SDS011;10015;52.530;13.390;2023-06-14T10:37:14;4.97;;;3.28;;
19727;SDS011;10015;52.530;13.390;2023-06-14T10:39:42;7.22;;;3.47;;
19727;SDS011;10015;52.530;13.390;2023-06-14T10:42:11;7.63;;;3.70;;
19727;SDS011;10015;52.530;13.390;2023-06-14T10:44:38;7.10;;;3.92;;
19727;SDS011;10015;52.530;13.390;2023-06-14T10:47:06;6.70;;;3.90;;
19727;SDS011;10015;52.530;13.390;2023-06-14T10:49:36;6.43;;;3.30;;
19727;SDS011;10015;52.530;13.390;2023-06-14T10:52:08;6.50;;;3.80;;
19727;SDS011;10015;52.530;13.390;2023-06-14T10:54:37;8.48;;;3.80;;
19727;SDS011;10015;52.530;13.390;2023-06-14T10:57:04;7.38;;;3.30;;
19727;SDS011;10015;52.530;13.390;2023-06-14T10:59:36;11.32;;;3.58;;
19727;SDS011;10015;52.530;13.390;2023-06-14T11:02:20;7.10;;;3.70;;
19727;SDS011;10015;52.530;13.390;2023-06-14T11:04:53;6.97;;;3.65;;
19727;SDS011;10015;52.530;13.390;2023-06-14T11:13:03;8.98;;;3.75;;
19727;SDS011;10015;52.530;13.390;2023-06-14T11:15:30;6.68;;;3.15;;
19727;SDS011;10015;52.530;13.390;2023-06-14T11:17:57;10.75;;;4.00;;
19727;SDS011;10015;52.530;13.390;2023-06-14T11:20:25;7.57;;;3.65;;
19727;SDS011;10015;52.530;13.390;2023-06-14T11:22:52;7.45;;;3.28;;
19727;SDS011;10015;52.530;13.390;2023-06-14T11:25:19;5.10;;;3.10;;
19727;SDS011;10015;52.530;13.390;2023-06-14T11:27:45;7.20;;;3.17;;
19727;SDS011;10015;52.530;13.390;2023-06-14T11:30:12;5.70;;;3.45;;
19727;SDS011;10015;52.530;13.390;2023-06-14T11:32:39;5.22;;;3.20;;
19727;SDS011;10015;52.530;13.390;2023-06-14T11:35:06;8.02;;;3.60;;
19727;SDS011;10015;52.530;13.390;2023-06-14T11:37:33;6.57;;;3.03;;
19727;SDS011;10015;52.530;13.390;2023-06-14T11:39:59;12.02;;;4.13;;
19727;SDS011;10015;52.530;13.390;2023-06-14T11:42:26;7.93;;;4.93;;
19727;SDS011;10015;52.530;13.390;2023-06-14T11:44:55;7.18;;;3.88;;
19727;SDS011;10015;52.530;13.390;2023-06-14T11:47:22;5.95;;;3.15;;
19727;SDS011;10015;52.530;13.390;2023-06-14T11:49:48;4.80;;;3.15;;
19727;SDS011;10015;52.530;13.390;2023-06-14T11:52:14;6.93;;;3.08;;
19727;SDS011;10015;52.530;13.390;2023-06-14T11:54:40;8.32;;;3.22;;
19727;SDS011;10015;52.530;13.390;2023-06-14T11:57:06;5.30;;;3.45;;
19727;SDS011;10015;52.530;13.390;2023-06-14T11:59:43;6.15;;;3.55;;
19727;SDS011;10015;52.530;13.390;2023-06-14T12:02:10;4.28;;;3.10;;
19727;SDS011;10015;52.530;13.390;2023-06-14T12:04:43;6.43;;;2.97;;
19727;SDS011;10015;52.530;13.390;2023-06-14T12:07:15;5.15;;;3.13;;
19727;SDS011;10015;52.530;13.390;2023-06-14T12:12:24;6.97;;;4.22;;
19727;SDS011;10015;52.530;13.390;2023-06-14T12:14:51;5.25;;;2.90;;
19727;SDS011;10015;52.530;13.390;2023-06-14T12:17:17;7.10;;;3.30;;
19727;SDS011;10015;52.530;13.390;2023-06-14T12:19:45;7.78;;;3.55;;
19727;SDS011;10015;52.530;13.390;2023-06-14T12:22:12;4.95;;;3.10;;
19727;SDS011;10015;52.530;13.390;2023-06-14T12:24:38;14.73;;;4.63;;
19727;SDS011;10015;52.530;13.390;2023-06-14T12:27:07;6.82;;;3.25;;
19727;SDS011;10015;52.530;13.390;2023-06-14T12:29:34;5.28;;;2.90;;
19727;SDS011;10015;52.530;13.390;2023-06-14T12:32:01;5.50;;;2.78;;
19727;SDS011;10015;52.530;13.390;2023-06-14T12:34:27;5.43;;;2.85;;
19727;SDS011;10015;52.530;13.390;2023-06-14T12:36:53;10.05;;;2.97;;
19727;SDS011;10015;52.530;13.390;2023-06-14T12:39:19;7.72;;;3.10;;
19727;SDS011;10015;52.530;13.390;2023-06-14T12:41:46;5.05;;;2.50;;
19727;SDS011;10015;52.530;13.390;2023-06-14T12:44:12;6.65;;;2.95;;
19727;SDS011;10015;52.530;13.390;2023-06-14T12:46:39;10.32;;;3.58;;
19727;SDS011;10015;52.530;13.390;2023-06-14T12:49:10;6.78;;;2.88;;
19727;SDS011;10015;52.530;13.390;2023-06-14T12:51:39;8.38;;;3.22;;
19727;SDS011;10015;52.530;13.390;2023-06-14T12:54:06;9.60;;;3.70;;
19727;SDS011;10015;52.530;13.390;2023-06-14T12:56:32;18.13;;;3.55;;
19727;SDS011;10015;52.530;13.390;2023-06-14T12:58:58;10.85;;;3.17;;
19727;SDS011;10015;52.530;13.390;2023-06-14T13:01:24;7.53;;;2.85;;
19727;SDS011;10015;52.530;13.390;2023-06-14T13:03:50;4.45;;;2.83;;
19727;SDS011;10015;52.530;13.390;2023-06-14T13:06:22;4.68;;;3.17;;
19727;SDS011;10015;52.530;13.390;2023-06-14T13:08:48;6.85;;;3.22;;
19727;SDS011;10015;52.530;13.390;2023-06-14T13:11:15;5.15;;;2.75;;
19727;SDS011;10015;52.530;13.390;2023-06-14T13:13:41;7.32;;;3.20;;
19727;SDS011;10015;52.530;13.390;2023-06-14T13:16:07;8.13;;;3.00;;
19727;SDS011;10015;52.530;13.390;2023-06-14T13:18:33;5.22;;;3.03;;
19727;SDS011;10015;52.530;13.390;2023-06-14T13:20:59;8.98;;;3.30;;
19727;SDS011;10015;52.530;13.390;2023-06-14T13:23:26;10.63;;;3.15;;
19727;SDS011;10015;52.530;13.390;2023-06-14T13:25:52;16.48;;;3.75;;
19727;SDS011;10015;52.530;13.390;2023-06-14T13:28:18;9.23;;;3.63;;
19727;SDS011;10015;52.530;13.390;2023-06-14T13:30:46;8.07;;;3.03;;
19727;SDS011;10015;52.530;13.390;2023-06-14T13:33:12;6.47;;;2.80;;
19727;SDS011;10015;52.530;13.390;2023-06-14T13:35:38;4.45;;;3.28;;
19727;SDS011;10015;52.530;13.390;2023-06-14T13:38:04;5.03;;;3.08;;
19727;SDS011;10015;52.530;13.390;2023-06-14T13:40:30;7.93;;;3.03;;
19727;SDS011;10015;52.530;13.390;2023-06-14T13:42:56;10.20;;;3.08;;
19727;SDS011;10015;52.530;13.390;2023-06-14T13:45:22;13.20;;;4.07;;
19727;SDS011;10015;52.530;13.390;2023-06-14T13:47:48;9.48;;;3.35;;
19727;SDS011;10015;52.530;13.390;2023-06-14T13:50:14;8.25;;;2.92;;
19727;SDS011;10015;52.530;13.390;2023-06-14T13:52:41;8.18;;;2.90;;
19727;SDS011;10015;52.530;13.390;2023-06-14T13:55:07;11.45;;;3.88;;
19727;SDS011;10015;52.530;13.390;2023-06-14T13:57:34;8.68;;;3.15;;
19727;SDS011;10015;52.530;13.390;2023-06-14T14:00:00;5.97;;;2.83;;
19727;SDS011;10015;52.530;13.390;2023-06-14T14:02:38;8.13;;;3.03;;
19727;SDS011;10015;52.530;13.390;2023-06-14T14:05:05;5.07;;;3.30;;
19727;SDS011;10015;52.530;13.390;2023-06-14T14:07:31;5.72;;;3.10;;
19727;SDS011;10015;52.530;13.390;2023-06-14T14:09:58;6.47;;;2.85;;
19727;SDS011;10015;52.530;13.390;2023-06-14T14:12:23;9.65;;;2.95;;
19727;SDS011;10015;52.530;13.390;2023-06-14T14:14:50;8.10;;;3.05;;
19727;SDS011;10015;52.530;13.390;2023-06-14T14:17:16;6.32;;;2.70;;
19727;SDS011;10015;52.530;13.390;2023-06-14T14:19:42;4.85;;;2.65;;
19727;SDS011;10015;52.530;13.390;2023-06-14T14:22:08;4.97;;;2.67;;
19727;SDS011;10015;52.530;13.390;2023-06-14T14:24:34;5.45;;;2.83;;
19727;SDS011;10015;52.530;13.390;2023-06-14T14:27:00;7.45;;;2.60;;
19727;SDS011;10015;52.530;13.390;2023-06-14T14:29:26;7.47;;;2.60;;
19727;SDS011;10015;52.530;13.390;2023-06-14T14:31:55;6.95;;;3.20;;
19727;SDS011;10015;52.530;13.390;2023-06-14T14:34:22;5.93;;;3.30;;
19727;SDS011;10015;52.530;13.390;2023-06-14T14:36:49;11.07;;;3.40;;
19727;SDS011;10015;52.530;13.390;2023-06-14T14:39:15;7.25;;;3.45;;
19727;SDS011;10015;52.530;13.390;2023-06-14T14:41:42;5.97;;;3.22;;
19727;SDS011;10015;52.530;13.390;2023-06-14T14:44:08;9.45;;;3.40;;
19727;SDS011;10015;52.530;13.390;2023-06-14T14:46:34;10.05;;;4.75;;
19727;SDS011;10015;52.530;13.390;2023-06-14T14:49:00;14.05;;;3.50;;
19727;SDS011;10015;52.530;13.390;2023-06-14T14:51:26;8.13;;;3.03;;